Detall de PIREP

Printer-friendly versionPDF version

[2015/08/02 21:39:00]
Flight IATA:CT1004
Pilot Number:030
Company ICAO:CAT
Aircraft Type:B763/F
PAX:150
Departing Airport: LEBL
Destination Airport: LEMD
Alternate Airport:LEMG
Online: VATSIM
Route:SENIA G7 ADUXO
Flight Level:F230
No Slew and time accel
No pause
Crash detect
Detect pilot in Cockpit between each 30 and 45 minutes
21:39 Zero fuel Weight: 246971 Lbs, Fuel Weight: 92162 Lbs
21:39 VATSIM:LEBL 022130Z 25006KT 9999 BKN022 25/21 Q1017 NOSIG
21:39 VATSIM:LEMD 022130Z 14002KT CAVOK 30/10 Q1016 NOSIG
21:40 Parking Brakes off
21:49 Take-off
21:49 Take off Weight: 336953 Lbs
21:49 Wind: 252º @ 006 Knots Heading: 245º
21:49 POS N41º 16´ 59´´ E002º 04´ 38´´
21:49 Gear Up: 170 Knots
21:49 Flaps:2 at 170 Knots
21:49 Flaps:1 at 190 Knots
21:49 Flaps:0 at 215 Knots
21:58 TOC
21:58 Fuel Weight: 85232 Lb
22:04 Wind:279º@022 Knots Heading: 270º Ground Speed: 443 Knots Altitude 23172 ft
22:18 TOD
22:18 Fuel Weight: 81054 Lb
22:19 Wind:252º@026 Knots Heading: 249º Ground Speed: 423 Knots Altitude 22388 ft
22:33 Flaps:1 at 218 Knots
22:33 Flaps:2 at 221 Knots
22:34 Wind:229º@016 Knots Heading: 242º Ground Speed: 250 Knots Altitude 9849 ft
22:40 Flaps:3 at 197 Knots
22:40 Gear Down: 193 Knots
22:40 Flaps:4 at 185 Knots
22:41 Flaps:5 at 162 Knots
22:41 Flaps:6 at 155 Knots
22:42 TouchDown:Rate -535 ft/min Speed: 143 Knots
22:42 VATSIM:LEMD 022230Z VRB01KT CAVOK 28/10 Q1016 NOSIG
22:42 Land
22:42 Wind:186º@003 Knots
22:42 Heading: 179º
22:42 Flight Duration: 00:53
22:42 Landing Weight: 325386 Lbs
22:42 POS N40º 30´ 33´´ W003º 33´ 33´´
22:48 Parking brakes on
22:48 Block to Block Duration: 01:08
22:48 Final Fuel: 77411 Lbls
22:48 Spent Fuel: 14750 Lbls
22:48 Flight Length: 309 NM
22:48 TOD Land Length: 111 NM

Exportar CSV

Powered by Drupal - Modified by Danger4k